AAL2647 KDFW-MMSD
Flight info
| Callsign | AAL2647 |
|---|---|
| Flight time | 2h 34m |
| Altitude | 36000 |
| Route | WSTEX2 DOSXX DCT FST DCT ALKEM DCT CUU UT36 LMM UJ51 ENEKO ENEKO1B |
| Aircraft | B738/M-SDE2E3FGHIRWXY/LB1 |
Departure
| Time | 2026-05-05 12:52 |
|---|---|
| Airport | Dallas Fort Worth International Airport (KDFW) |
Arrival
| Time | 2026-05-05 15:26 |
|---|---|
| Airport | Los Cabos International Airport (MMSD) |
| Time | Latitude | Longitude | Altitude | Speed | Heading |
|---|---|---|---|---|---|
| 2026-05-05 12:21 | 32.90424 | -97.03492 | 625 ft | 0 kts | 289° |
| 2026-05-05 12:22 | 32.90424 | -97.03497 | 622 ft | 0 kts | 291° |
| 2026-05-05 12:25 | 32.90424 | -97.03492 | 615 ft | 7 kts | 289° |
| 2026-05-05 12:25 | 32.90424 | -97.03497 | 615 ft | 0 kts | 291° |
| 2026-05-05 12:45 | 32.90416 | -97.03472 | 621 ft | 4 kts | 291° |
| 2026-05-05 12:45 | 32.90408 | -97.03449 | 614 ft | 4 kts | 288° |
| 2026-05-05 12:46 | 32.90398 | -97.03422 | 617 ft | 2 kts | 311° |
| 2026-05-05 12:46 | 32.90383 | -97.03402 | 622 ft | 3 kts | 312° |
| 2026-05-05 12:46 | 32.90381 | -97.03399 | 614 ft | 0 kts | 312° |
| 2026-05-05 12:48 | 32.90390 | -97.03400 | 625 ft | 4 kts | 3° |
| 2026-05-05 12:48 | 32.90399 | -97.03354 | 623 ft | 7 kts | 83° |
| 2026-05-05 12:48 | 32.90453 | -97.03302 | 624 ft | 13 kts | 43° |
| 2026-05-05 12:48 | 32.90480 | -97.03207 | 622 ft | 12 kts | 46° |
| 2026-05-05 12:49 | 32.90593 | -97.03189 | 625 ft | 22 kts | 0° |
| 2026-05-05 12:49 | 32.90752 | -97.03188 | 623 ft | 23 kts | 0° |
| 2026-05-05 12:49 | 32.90908 | -97.03186 | 617 ft | 22 kts | 0° |
| 2026-05-05 12:49 | 32.91060 | -97.03185 | 623 ft | 21 kts | 359° |
| 2026-05-05 12:50 | 32.91207 | -97.03185 | 621 ft | 21 kts | 360° |
| 2026-05-05 12:50 | 32.91350 | -97.03184 | 627 ft | 20 kts | 360° |
| 2026-05-05 12:50 | 32.91489 | -97.03185 | 628 ft | 20 kts | 0° |
| 2026-05-05 12:50 | 32.91565 | -97.03085 | 618 ft | 19 kts | 90° |
| 2026-05-05 12:51 | 32.91490 | -97.02990 | 622 ft | 20 kts | 179° |
| 2026-05-05 12:51 | 32.91194 | -97.02991 | 619 ft | 77 kts | 180° |
| 2026-05-05 12:51 | 32.90421 | -97.02994 | 615 ft | 140 kts | 180° |
| 2026-05-05 12:51 | 32.89313 | -97.03001 | 888 ft | 170 kts | 181° |
| 2026-05-05 12:52 | 32.88123 | -97.03045 | 1614 ft | 176 kts | 185° |
| 2026-05-05 12:52 | 32.86894 | -97.03197 | 2273 ft | 187 kts | 186° |
| 2026-05-05 12:52 | 32.85507 | -97.03370 | 2499 ft | 212 kts | 187° |
| 2026-05-05 12:52 | 32.84012 | -97.03573 | 2951 ft | 219 kts | 188° |
| 2026-05-05 12:53 | 32.82499 | -97.03781 | 3584 ft | 222 kts | 189° |
| 2026-05-05 12:53 | 32.80896 | -97.04008 | 4089 ft | 238 kts | 190° |
| 2026-05-05 12:53 | 32.79224 | -97.04242 | 4731 ft | 245 kts | 190° |
| 2026-05-05 12:53 | 32.77521 | -97.04477 | 5481 ft | 249 kts | 192° |
| 2026-05-05 12:54 | 32.73981 | -97.04983 | 6781 ft | 262 kts | 193° |
| 2026-05-05 12:54 | 32.72237 | -97.05502 | 7468 ft | 256 kts | 214° |
| 2026-05-05 12:54 | 32.70925 | -97.06878 | 8013 ft | 257 kts | 234° |
| 2026-05-05 12:55 | 32.70083 | -97.08769 | 8410 ft | 264 kts | 253° |
| 2026-05-05 12:55 | 32.69601 | -97.10891 | 9027 ft | 267 kts | 257° |
| 2026-05-05 12:55 | 32.69181 | -97.13053 | 9696 ft | 269 kts | 259° |
| 2026-05-05 12:55 | 32.68956 | -97.15260 | 10352 ft | 273 kts | 267° |
| 2026-05-05 12:56 | 32.68898 | -97.17593 | 10535 ft | 293 kts | 269° |
| 2026-05-05 12:56 | 32.68877 | -97.20096 | 10699 ft | 312 kts | 269° |
| 2026-05-05 12:56 | 32.68857 | -97.22745 | 10831 ft | 330 kts | 269° |
| 2026-05-05 12:56 | 32.68827 | -97.25540 | 10954 ft | 346 kts | 269° |
| 2026-05-05 12:57 | 32.68787 | -97.28459 | 11077 ft | 361 kts | 269° |
| 2026-05-05 12:57 | 32.68738 | -97.31484 | 11270 ft | 371 kts | 269° |
| 2026-05-05 12:57 | 32.68679 | -97.34565 | 11689 ft | 373 kts | 269° |
| 2026-05-05 12:57 | 32.68615 | -97.37638 | 12300 ft | 372 kts | 269° |
| 2026-05-05 12:58 | 32.68549 | -97.40716 | 12783 ft | 374 kts | 269° |
| 2026-05-05 12:58 | 32.68485 | -97.43764 | 13315 ft | 374 kts | 269° |
| 2026-05-05 12:58 | 32.68417 | -97.46851 | 13856 ft | 375 kts | 269° |
| 2026-05-05 12:58 | 32.68348 | -97.49947 | 14380 ft | 376 kts | 269° |
| 2026-05-05 12:59 | 32.68279 | -97.53060 | 14886 ft | 377 kts | 269° |
| 2026-05-05 12:59 | 32.68208 | -97.56169 | 15406 ft | 378 kts | 269° |
| 2026-05-05 12:59 | 32.68136 | -97.59295 | 15932 ft | 378 kts | 269° |
| 2026-05-05 13:00 | 32.67991 | -97.65552 | 16906 ft | 380 kts | 270° |
| 2026-05-05 13:00 | 32.67917 | -97.68697 | 17358 ft | 382 kts | 270° |
| 2026-05-05 13:01 | 32.67517 | -97.78163 | 18680 ft | 386 kts | 266° |
| 2026-05-05 13:01 | 32.67255 | -97.81338 | 19120 ft | 387 kts | 266° |
| 2026-05-05 13:01 | 32.66983 | -97.84517 | 19465 ft | 389 kts | 266° |
| 2026-05-05 13:01 | 32.66714 | -97.87727 | 19786 ft | 391 kts | 266° |
| 2026-05-05 13:02 | 32.66451 | -97.90943 | 20151 ft | 392 kts | 266° |
| 2026-05-05 13:02 | 32.66191 | -97.94168 | 20491 ft | 394 kts | 266° |
| 2026-05-05 13:02 | 32.65935 | -97.97404 | 20848 ft | 395 kts | 266° |
| 2026-05-05 13:02 | 32.65675 | -98.00660 | 21192 ft | 397 kts | 266° |
| 2026-05-05 13:03 | 32.65420 | -98.03919 | 21614 ft | 396 kts | 265° |
| 2026-05-05 13:03 | 32.65161 | -98.07174 | 21911 ft | 397 kts | 265° |
| 2026-05-05 13:03 | 32.64900 | -98.10439 | 22163 ft | 398 kts | 265° |
| 2026-05-05 13:03 | 32.64637 | -98.13724 | 22373 ft | 401 kts | 265° |
| 2026-05-05 13:04 | 32.64374 | -98.17017 | 22631 ft | 402 kts | 265° |
| 2026-05-05 13:04 | 32.64108 | -98.20319 | 22886 ft | 402 kts | 265° |
| 2026-05-05 13:04 | 32.63841 | -98.23624 | 23133 ft | 403 kts | 265° |
| 2026-05-05 13:04 | 32.63572 | -98.26941 | 23339 ft | 405 kts | 265° |
| 2026-05-05 13:05 | 32.63302 | -98.30269 | 23564 ft | 406 kts | 265° |
| 2026-05-05 13:05 | 32.63031 | -98.33606 | 23786 ft | 406 kts | 265° |
| 2026-05-05 13:05 | 32.62758 | -98.36944 | 23977 ft | 407 kts | 265° |
| 2026-05-05 13:05 | 32.62484 | -98.40289 | 24172 ft | 408 kts | 265° |
| 2026-05-05 13:06 | 32.62302 | -98.42507 | 24286 ft | 408 kts | 265° |
| 2026-05-05 13:06 | 32.61933 | -98.46997 | 24537 ft | 409 kts | 265° |
| 2026-05-05 13:06 | 32.61750 | -98.49223 | 24651 ft | 410 kts | 265° |
| 2026-05-05 13:06 | 32.61470 | -98.52597 | 24791 ft | 411 kts | 265° |
| 2026-05-05 13:07 | 32.61190 | -98.55973 | 24933 ft | 413 kts | 265° |
| 2026-05-05 13:07 | 32.60906 | -98.59369 | 25076 ft | 414 kts | 265° |
| 2026-05-05 13:07 | 32.60622 | -98.62766 | 25222 ft | 414 kts | 265° |
| 2026-05-05 13:07 | 32.60337 | -98.66163 | 25395 ft | 414 kts | 265° |
| 2026-05-05 13:08 | 32.60050 | -98.69562 | 25513 ft | 415 kts | 265° |
| 2026-05-05 13:08 | 32.59762 | -98.72972 | 25601 ft | 416 kts | 265° |
| 2026-05-05 13:08 | 32.59473 | -98.76387 | 25755 ft | 416 kts | 265° |
| 2026-05-05 13:08 | 32.59184 | -98.79792 | 25938 ft | 414 kts | 265° |
| 2026-05-05 13:09 | 32.58894 | -98.83188 | 26108 ft | 414 kts | 265° |
| 2026-05-05 13:09 | 32.58603 | -98.86581 | 26288 ft | 413 kts | 265° |
| 2026-05-05 13:09 | 32.58313 | -98.89964 | 26455 ft | 413 kts | 265° |
| 2026-05-05 13:09 | 32.58022 | -98.93344 | 26625 ft | 412 kts | 265° |
| 2026-05-05 13:10 | 32.57730 | -98.96715 | 26841 ft | 411 kts | 265° |
| 2026-05-05 13:10 | 32.57438 | -99.00076 | 27034 ft | 410 kts | 265° |
| 2026-05-05 13:10 | 32.57147 | -99.03430 | 27243 ft | 409 kts | 265° |
| 2026-05-05 13:10 | 32.56855 | -99.06783 | 27417 ft | 408 kts | 265° |
| 2026-05-05 13:11 | 32.56563 | -99.10122 | 27639 ft | 407 kts | 265° |
| 2026-05-05 13:11 | 32.56271 | -99.13453 | 27829 ft | 406 kts | 265° |
| 2026-05-05 13:11 | 32.55979 | -99.16779 | 28041 ft | 405 kts | 265° |
| 2026-05-05 13:11 | 32.55686 | -99.20100 | 28251 ft | 404 kts | 265° |
| 2026-05-05 13:12 | 32.55394 | -99.23406 | 28466 ft | 403 kts | 265° |
| 2026-05-05 13:12 | 32.55101 | -99.26703 | 28697 ft | 402 kts | 265° |
| 2026-05-05 13:12 | 32.54808 | -99.29990 | 28936 ft | 401 kts | 265° |
| 2026-05-05 13:12 | 32.54494 | -99.33268 | 29125 ft | 401 kts | 262° |
| 2026-05-05 13:13 | 32.53854 | -99.36486 | 29338 ft | 402 kts | 257° |
| 2026-05-05 13:13 | 32.53064 | -99.39663 | 29561 ft | 401 kts | 256° |
| 2026-05-05 13:13 | 32.52255 | -99.42822 | 29776 ft | 401 kts | 256° |
| 2026-05-05 13:13 | 32.51452 | -99.45980 | 29992 ft | 400 kts | 256° |
| 2026-05-05 13:14 | 32.50661 | -99.49132 | 30234 ft | 399 kts | 256° |
| 2026-05-05 13:14 | 32.49880 | -99.52281 | 30444 ft | 398 kts | 256° |
| 2026-05-05 13:14 | 32.49106 | -99.55422 | 30695 ft | 397 kts | 257° |
| 2026-05-05 13:14 | 32.48339 | -99.58554 | 30936 ft | 396 kts | 257° |
| 2026-05-05 13:15 | 32.47573 | -99.61687 | 31137 ft | 396 kts | 257° |
| 2026-05-05 13:15 | 32.46808 | -99.64814 | 31341 ft | 395 kts | 257° |
| 2026-05-05 13:15 | 32.46043 | -99.67936 | 31581 ft | 394 kts | 256° |
| 2026-05-05 13:15 | 32.45280 | -99.71045 | 31878 ft | 392 kts | 256° |
| 2026-05-05 13:16 | 32.44521 | -99.74137 | 32134 ft | 391 kts | 256° |
| 2026-05-05 13:16 | 32.43762 | -99.77222 | 32344 ft | 390 kts | 256° |
| 2026-05-05 13:16 | 32.43003 | -99.80310 | 32546 ft | 390 kts | 256° |
| 2026-05-05 13:16 | 32.42244 | -99.83390 | 32792 ft | 389 kts | 256° |
| 2026-05-05 13:17 | 32.41496 | -99.86422 | 33028 ft | 389 kts | 256° |
| 2026-05-05 13:17 | 32.40729 | -99.89529 | 33251 ft | 388 kts | 256° |
| 2026-05-05 13:17 | 32.39982 | -99.92547 | 33529 ft | 386 kts | 256° |
| 2026-05-05 13:17 | 32.39148 | -99.95568 | 33764 ft | 388 kts | 250° |
| 2026-05-05 13:18 | 32.37935 | -99.98432 | 33982 ft | 390 kts | 246° |
| 2026-05-05 13:18 | 32.36632 | -100.01239 | 34251 ft | 389 kts | 246° |
| 2026-05-05 13:18 | 32.35314 | -100.04029 | 34477 ft | 388 kts | 246° |
| 2026-05-05 13:18 | 32.33999 | -100.06817 | 34657 ft | 388 kts | 246° |
| 2026-05-05 13:19 | 32.32691 | -100.09605 | 34834 ft | 388 kts | 246° |
| 2026-05-05 13:19 | 32.31392 | -100.12396 | 35057 ft | 387 kts | 246° |
| 2026-05-05 13:19 | 32.30102 | -100.15178 | 35319 ft | 385 kts | 246° |
| 2026-05-05 13:19 | 32.28819 | -100.17955 | 35530 ft | 384 kts | 246° |
| 2026-05-05 13:20 | 32.27543 | -100.20721 | 35758 ft | 383 kts | 246° |
| 2026-05-05 13:20 | 32.26267 | -100.23491 | 35792 ft | 386 kts | 246° |
| 2026-05-05 13:20 | 32.23700 | -100.29059 | 35813 ft | 385 kts | 246° |
| 2026-05-05 13:21 | 32.21152 | -100.34576 | 35825 ft | 381 kts | 246° |
| 2026-05-05 13:21 | 32.18617 | -100.40056 | 35823 ft | 380 kts | 246° |
| 2026-05-05 13:22 | 32.16085 | -100.45521 | 35827 ft | 379 kts | 246° |
| 2026-05-05 13:22 | 32.13558 | -100.50968 | 35842 ft | 378 kts | 246° |
| 2026-05-05 13:23 | 32.11031 | -100.56406 | 35845 ft | 378 kts | 246° |
| 2026-05-05 13:23 | 32.08501 | -100.61842 | 35853 ft | 379 kts | 246° |
| 2026-05-05 13:24 | 32.05956 | -100.67299 | 35857 ft | 380 kts | 246° |
| 2026-05-05 13:24 | 32.03410 | -100.72757 | 35853 ft | 380 kts | 246° |
| 2026-05-05 13:25 | 32.00857 | -100.78218 | 35854 ft | 380 kts | 245° |
| 2026-05-05 13:25 | 31.98305 | -100.83673 | 35842 ft | 381 kts | 245° |
| 2026-05-05 13:26 | 31.95742 | -100.89143 | 35862 ft | 381 kts | 245° |
| 2026-05-05 13:26 | 31.93174 | -100.94614 | 35860 ft | 382 kts | 245° |
| 2026-05-05 13:27 | 31.90597 | -101.00094 | 35859 ft | 383 kts | 245° |
| 2026-05-05 13:27 | 31.88014 | -101.05580 | 35859 ft | 384 kts | 245° |
| 2026-05-05 13:28 | 31.85423 | -101.11073 | 35865 ft | 384 kts | 245° |
| 2026-05-05 13:28 | 31.82836 | -101.16551 | 35855 ft | 383 kts | 245° |
| 2026-05-05 13:29 | 31.80251 | -101.22017 | 35862 ft | 382 kts | 245° |
| 2026-05-05 13:29 | 31.77667 | -101.27473 | 35874 ft | 382 kts | 245° |
| 2026-05-05 13:30 | 31.75084 | -101.32918 | 35871 ft | 381 kts | 244° |
| 2026-05-05 13:30 | 31.72505 | -101.38352 | 35865 ft | 380 kts | 244° |
| 2026-05-05 13:31 | 31.69926 | -101.43772 | 35871 ft | 380 kts | 244° |
| 2026-05-05 13:31 | 31.67347 | -101.49184 | 35892 ft | 379 kts | 244° |
| 2026-05-05 13:32 | 31.64773 | -101.54581 | 35884 ft | 379 kts | 244° |
| 2026-05-05 13:32 | 31.62198 | -101.59973 | 35892 ft | 378 kts | 244° |
| 2026-05-05 13:33 | 31.59625 | -101.65351 | 35899 ft | 378 kts | 244° |
| 2026-05-05 13:33 | 31.57047 | -101.70729 | 35899 ft | 378 kts | 244° |
| 2026-05-05 13:34 | 31.54470 | -101.76101 | 35899 ft | 378 kts | 244° |
| 2026-05-05 13:34 | 31.51888 | -101.81474 | 35898 ft | 378 kts | 244° |
| 2026-05-05 13:35 | 31.49306 | -101.86841 | 35898 ft | 378 kts | 244° |
| 2026-05-05 13:35 | 31.46720 | -101.92209 | 35897 ft | 378 kts | 244° |
| 2026-05-05 13:36 | 31.44131 | -101.97575 | 35898 ft | 379 kts | 244° |
| 2026-05-05 13:36 | 31.41539 | -102.02940 | 35897 ft | 378 kts | 244° |
| 2026-05-05 13:37 | 31.38944 | -102.08303 | 35898 ft | 378 kts | 244° |
| 2026-05-05 13:37 | 31.36350 | -102.13658 | 35897 ft | 378 kts | 243° |
| 2026-05-05 13:38 | 31.33748 | -102.19019 | 35895 ft | 379 kts | 243° |
| 2026-05-05 13:38 | 31.31144 | -102.24377 | 35896 ft | 379 kts | 243° |
| 2026-05-05 13:39 | 31.28534 | -102.29739 | 35905 ft | 379 kts | 243° |
| 2026-05-05 13:39 | 31.25903 | -102.35139 | 35897 ft | 380 kts | 243° |
| 2026-05-05 13:40 | 31.23285 | -102.40504 | 35897 ft | 380 kts | 243° |
| 2026-05-05 13:40 | 31.20662 | -102.45872 | 35898 ft | 380 kts | 243° |
| 2026-05-05 13:41 | 31.18037 | -102.51238 | 35898 ft | 380 kts | 243° |
| 2026-05-05 13:41 | 31.15406 | -102.56604 | 35895 ft | 381 kts | 243° |
| 2026-05-05 13:42 | 31.12773 | -102.61975 | 35899 ft | 381 kts | 243° |
| 2026-05-05 13:42 | 31.10131 | -102.67350 | 35898 ft | 382 kts | 243° |
| 2026-05-05 13:43 | 31.07486 | -102.72725 | 35897 ft | 382 kts | 243° |
| 2026-05-05 13:43 | 31.04836 | -102.78101 | 35898 ft | 383 kts | 243° |
| 2026-05-05 13:44 | 31.02182 | -102.83481 | 35897 ft | 383 kts | 243° |
| 2026-05-05 13:44 | 30.99528 | -102.88856 | 35900 ft | 383 kts | 243° |
| 2026-05-05 13:45 | 30.96864 | -102.94239 | 35898 ft | 383 kts | 243° |
| 2026-05-05 13:45 | 30.93962 | -102.99461 | 35894 ft | 387 kts | 235° |
| 2026-05-05 13:46 | 30.90555 | -103.04314 | 35896 ft | 387 kts | 235° |
| 2026-05-05 13:46 | 30.87719 | -103.08348 | 35896 ft | 387 kts | 235° |
| 2026-05-05 13:47 | 30.84314 | -103.13208 | 35909 ft | 387 kts | 235° |
| 2026-05-05 13:47 | 30.80915 | -103.18065 | 35911 ft | 387 kts | 235° |
| 2026-05-05 13:48 | 30.77520 | -103.22913 | 35920 ft | 387 kts | 235° |
| 2026-05-05 13:48 | 30.74124 | -103.27762 | 35929 ft | 386 kts | 235° |
| 2026-05-05 13:49 | 30.70730 | -103.32602 | 35943 ft | 386 kts | 235° |
| 2026-05-05 13:49 | 30.67336 | -103.37438 | 35956 ft | 386 kts | 235° |
| 2026-05-05 13:50 | 30.63936 | -103.42272 | 35972 ft | 387 kts | 235° |
| 2026-05-05 13:50 | 30.60530 | -103.47108 | 35992 ft | 387 kts | 235° |
| 2026-05-05 13:51 | 30.57119 | -103.51946 | 36007 ft | 387 kts | 234° |
| 2026-05-05 13:51 | 30.53705 | -103.56784 | 36024 ft | 387 kts | 234° |
| 2026-05-05 13:52 | 30.50279 | -103.61615 | 36032 ft | 388 kts | 234° |
| 2026-05-05 13:52 | 30.46858 | -103.66459 | 36056 ft | 389 kts | 234° |
| 2026-05-05 13:53 | 30.43429 | -103.71306 | 36065 ft | 389 kts | 234° |
| 2026-05-05 13:53 | 30.39995 | -103.76151 | 36064 ft | 390 kts | 234° |
| 2026-05-05 13:54 | 30.36548 | -103.81004 | 36064 ft | 390 kts | 234° |
| 2026-05-05 13:54 | 30.33102 | -103.85849 | 36060 ft | 390 kts | 234° |
| 2026-05-05 13:55 | 30.29646 | -103.90702 | 36049 ft | 391 kts | 234° |
| 2026-05-05 13:55 | 30.26188 | -103.95555 | 36047 ft | 391 kts | 234° |
| 2026-05-05 13:56 | 30.22727 | -104.00406 | 36046 ft | 391 kts | 234° |
| 2026-05-05 13:56 | 30.19258 | -104.05260 | 36040 ft | 391 kts | 234° |
| 2026-05-05 13:57 | 30.15791 | -104.10106 | 36030 ft | 391 kts | 234° |
| 2026-05-05 13:57 | 30.12324 | -104.14946 | 36028 ft | 391 kts | 234° |
| 2026-05-05 13:58 | 30.08861 | -104.19774 | 36019 ft | 390 kts | 234° |
| 2026-05-05 13:58 | 30.05399 | -104.24596 | 36009 ft | 390 kts | 234° |
| 2026-05-05 13:59 | 30.00201 | -104.31826 | 36003 ft | 390 kts | 234° |
| 2026-05-05 14:00 | 29.94993 | -104.39056 | 35984 ft | 390 kts | 234° |
| 2026-05-05 14:00 | 29.91521 | -104.43869 | 35985 ft | 390 kts | 234° |
| 2026-05-05 14:01 | 29.88045 | -104.48682 | 35986 ft | 391 kts | 234° |
| 2026-05-05 14:01 | 29.84562 | -104.53500 | 35980 ft | 391 kts | 234° |
| 2026-05-05 14:02 | 29.81076 | -104.58317 | 35971 ft | 391 kts | 234° |
| 2026-05-05 14:02 | 29.77489 | -104.63034 | 35968 ft | 391 kts | 232° |
| 2026-05-05 14:03 | 29.73817 | -104.67667 | 35974 ft | 391 kts | 231° |
| 2026-05-05 14:03 | 29.70154 | -104.72293 | 35970 ft | 391 kts | 232° |
| 2026-05-05 14:04 | 29.66509 | -104.76915 | 35973 ft | 390 kts | 232° |
| 2026-05-05 14:04 | 29.62861 | -104.81551 | 35984 ft | 391 kts | 232° |
| 2026-05-05 14:05 | 29.59205 | -104.86195 | 35967 ft | 392 kts | 232° |
| 2026-05-05 14:05 | 29.55551 | -104.90833 | 35969 ft | 391 kts | 231° |
| 2026-05-05 14:06 | 29.51873 | -104.95491 | 35966 ft | 391 kts | 231° |
| 2026-05-05 14:06 | 29.48222 | -105.00111 | 35975 ft | 390 kts | 231° |
| 2026-05-05 14:07 | 29.44578 | -105.04718 | 35970 ft | 390 kts | 231° |
| 2026-05-05 14:07 | 29.40959 | -105.09290 | 35981 ft | 389 kts | 231° |
| 2026-05-05 14:08 | 29.37294 | -105.13914 | 35990 ft | 389 kts | 231° |
| 2026-05-05 14:08 | 29.33649 | -105.18506 | 35992 ft | 389 kts | 231° |
| 2026-05-05 14:09 | 29.30005 | -105.23092 | 35993 ft | 389 kts | 231° |
| 2026-05-05 14:09 | 29.26358 | -105.27677 | 36001 ft | 389 kts | 231° |
| 2026-05-05 14:10 | 29.22708 | -105.32262 | 36014 ft | 389 kts | 231° |
| 2026-05-05 14:10 | 29.19059 | -105.36838 | 36026 ft | 389 kts | 231° |
| 2026-05-05 14:11 | 29.15409 | -105.41409 | 36034 ft | 389 kts | 231° |
| 2026-05-05 14:11 | 29.11760 | -105.45974 | 36036 ft | 389 kts | 231° |
| 2026-05-05 14:12 | 29.08104 | -105.50545 | 36037 ft | 389 kts | 231° |
| 2026-05-05 14:12 | 29.04445 | -105.55113 | 36051 ft | 390 kts | 231° |
| 2026-05-05 14:13 | 29.00775 | -105.59683 | 36069 ft | 390 kts | 231° |
| 2026-05-05 14:13 | 28.97110 | -105.64251 | 36070 ft | 391 kts | 231° |
| 2026-05-05 14:14 | 28.93449 | -105.68824 | 36061 ft | 388 kts | 230° |
| 2026-05-05 14:14 | 28.89776 | -105.73347 | 36069 ft | 388 kts | 230° |
| 2026-05-05 14:15 | 28.86128 | -105.77890 | 36076 ft | 387 kts | 231° |
| 2026-05-05 14:15 | 28.82477 | -105.82460 | 36090 ft | 391 kts | 232° |
| 2026-05-05 14:16 | 28.78804 | -105.87035 | 36083 ft | 393 kts | 230° |
| 2026-05-05 14:16 | 28.75097 | -105.91606 | 36076 ft | 393 kts | 230° |
| 2026-05-05 14:17 | 28.71384 | -105.96153 | 36074 ft | 393 kts | 228° |
| 2026-05-05 14:17 | 28.67392 | -106.00437 | 36081 ft | 395 kts | 227° |
| 2026-05-05 14:18 | 28.63369 | -106.04691 | 36093 ft | 394 kts | 226° |
| 2026-05-05 14:18 | 28.59360 | -106.08952 | 36079 ft | 395 kts | 226° |
| 2026-05-05 14:19 | 28.55352 | -106.13214 | 36084 ft | 394 kts | 227° |
| 2026-05-05 14:19 | 28.51345 | -106.17471 | 36083 ft | 395 kts | 227° |
| 2026-05-05 14:20 | 28.47336 | -106.21730 | 36074 ft | 394 kts | 227° |
| 2026-05-05 14:20 | 28.43336 | -106.25973 | 36082 ft | 393 kts | 226° |
| 2026-05-05 14:21 | 28.39337 | -106.30210 | 36094 ft | 393 kts | 226° |
| 2026-05-05 14:21 | 28.35341 | -106.34441 | 36090 ft | 393 kts | 226° |
| 2026-05-05 14:22 | 28.31334 | -106.38671 | 36095 ft | 393 kts | 226° |
| 2026-05-05 14:22 | 28.27325 | -106.42894 | 36109 ft | 393 kts | 226° |
| 2026-05-05 14:23 | 28.23315 | -106.47116 | 36102 ft | 394 kts | 226° |
| 2026-05-05 14:23 | 28.19301 | -106.51337 | 36115 ft | 393 kts | 226° |
| 2026-05-05 14:24 | 28.15291 | -106.55550 | 36115 ft | 393 kts | 226° |
| 2026-05-05 14:24 | 28.11282 | -106.59759 | 36118 ft | 393 kts | 226° |
| 2026-05-05 14:25 | 28.07927 | -106.63279 | 36126 ft | 393 kts | 226° |
| 2026-05-05 14:25 | 28.03915 | -106.67482 | 36130 ft | 393 kts | 226° |
| 2026-05-05 14:26 | 27.99905 | -106.71678 | 36145 ft | 393 kts | 226° |
| 2026-05-05 14:26 | 27.95889 | -106.75879 | 36148 ft | 394 kts | 226° |
| 2026-05-05 14:27 | 27.91856 | -106.80093 | 36157 ft | 395 kts | 226° |
| 2026-05-05 14:27 | 27.87817 | -106.84308 | 36169 ft | 396 kts | 226° |
| 2026-05-05 14:28 | 27.83760 | -106.88534 | 36173 ft | 397 kts | 226° |
| 2026-05-05 14:28 | 27.79703 | -106.92758 | 36164 ft | 397 kts | 226° |
| 2026-05-05 14:29 | 27.75641 | -106.96988 | 36176 ft | 398 kts | 226° |
| 2026-05-05 14:29 | 27.71572 | -107.01217 | 36186 ft | 398 kts | 226° |
| 2026-05-05 14:30 | 27.67495 | -107.05451 | 36186 ft | 398 kts | 225° |
| 2026-05-05 14:30 | 27.63420 | -107.09678 | 36186 ft | 398 kts | 225° |
| 2026-05-05 14:31 | 27.59351 | -107.13905 | 36196 ft | 397 kts | 225° |
| 2026-05-05 14:31 | 27.55279 | -107.18114 | 36200 ft | 397 kts | 225° |
| 2026-05-05 14:32 | 27.51211 | -107.22320 | 36207 ft | 397 kts | 225° |
| 2026-05-05 14:32 | 27.47138 | -107.26527 | 36210 ft | 397 kts | 225° |
| 2026-05-05 14:33 | 27.43065 | -107.30732 | 36199 ft | 398 kts | 225° |
| 2026-05-05 14:33 | 27.38987 | -107.34937 | 36207 ft | 397 kts | 225° |
| 2026-05-05 14:34 | 27.34905 | -107.39131 | 36203 ft | 398 kts | 225° |
| 2026-05-05 14:34 | 27.30833 | -107.43338 | 36200 ft | 396 kts | 225° |
| 2026-05-05 14:35 | 27.26725 | -107.47505 | 36187 ft | 398 kts | 226° |
| 2026-05-05 14:35 | 27.22692 | -107.51705 | 36186 ft | 395 kts | 225° |
| 2026-05-05 14:36 | 27.18618 | -107.55865 | 36184 ft | 396 kts | 225° |
| 2026-05-05 14:36 | 27.14542 | -107.60049 | 36188 ft | 397 kts | 225° |
| 2026-05-05 14:37 | 27.10454 | -107.64243 | 36198 ft | 398 kts | 225° |
| 2026-05-05 14:37 | 27.06342 | -107.68446 | 36175 ft | 401 kts | 225° |
| 2026-05-05 14:38 | 27.02212 | -107.72665 | 36159 ft | 401 kts | 225° |
| 2026-05-05 14:38 | 26.98088 | -107.76874 | 36164 ft | 400 kts | 225° |
| 2026-05-05 14:39 | 26.93967 | -107.81076 | 36154 ft | 401 kts | 225° |
| 2026-05-05 14:39 | 26.89838 | -107.85281 | 36128 ft | 401 kts | 225° |
| 2026-05-05 14:40 | 26.85709 | -107.89482 | 36123 ft | 401 kts | 225° |
| 2026-05-05 14:40 | 26.81588 | -107.93672 | 36118 ft | 400 kts | 225° |
| 2026-05-05 14:41 | 26.77468 | -107.97853 | 36094 ft | 400 kts | 225° |
| 2026-05-05 14:41 | 26.73342 | -108.02038 | 36108 ft | 401 kts | 225° |
| 2026-05-05 14:42 | 26.69208 | -108.06245 | 36080 ft | 402 kts | 225° |
| 2026-05-05 14:42 | 26.65068 | -108.10443 | 36087 ft | 402 kts | 225° |
| 2026-05-05 14:43 | 26.60925 | -108.14644 | 36071 ft | 402 kts | 225° |
| 2026-05-05 14:43 | 26.56774 | -108.18843 | 36069 ft | 403 kts | 225° |
| 2026-05-05 14:44 | 26.52630 | -108.23050 | 36058 ft | 404 kts | 225° |
| 2026-05-05 14:44 | 26.48457 | -108.27260 | 36056 ft | 404 kts | 224° |
| 2026-05-05 14:45 | 26.44270 | -108.31438 | 36044 ft | 403 kts | 224° |
| 2026-05-05 14:45 | 26.40106 | -108.35630 | 36035 ft | 403 kts | 224° |
| 2026-05-05 14:46 | 26.35941 | -108.39817 | 36024 ft | 403 kts | 224° |
| 2026-05-05 14:46 | 26.31777 | -108.43999 | 36020 ft | 403 kts | 224° |
| 2026-05-05 14:47 | 26.27614 | -108.48177 | 36012 ft | 403 kts | 224° |
| 2026-05-05 14:47 | 26.23445 | -108.52351 | 36010 ft | 403 kts | 224° |
| 2026-05-05 14:48 | 26.19273 | -108.56527 | 35998 ft | 403 kts | 224° |
| 2026-05-05 14:48 | 26.15103 | -108.60699 | 36002 ft | 403 kts | 224° |
| 2026-05-05 14:49 | 26.10939 | -108.64857 | 36002 ft | 402 kts | 224° |
| 2026-05-05 14:49 | 26.06770 | -108.69006 | 35984 ft | 402 kts | 224° |
| 2026-05-05 14:50 | 26.02606 | -108.73159 | 35996 ft | 402 kts | 224° |
| 2026-05-05 14:50 | 25.98444 | -108.77306 | 35984 ft | 402 kts | 224° |
| 2026-05-05 14:51 | 25.94270 | -108.81458 | 35981 ft | 403 kts | 224° |
| 2026-05-05 14:51 | 25.90082 | -108.85619 | 35987 ft | 405 kts | 224° |
| 2026-05-05 14:52 | 25.85876 | -108.89794 | 35980 ft | 406 kts | 224° |
| 2026-05-05 14:52 | 25.81649 | -108.93985 | 35973 ft | 406 kts | 224° |
| 2026-05-05 14:53 | 25.77458 | -108.98140 | 35974 ft | 407 kts | 224° |
| 2026-05-05 14:53 | 25.73234 | -109.02319 | 35969 ft | 407 kts | 224° |
| 2026-05-05 14:54 | 25.68748 | -109.05990 | 35977 ft | 412 kts | 212° |
| 2026-05-05 14:54 | 25.63453 | -109.08517 | 35962 ft | 420 kts | 200° |
| 2026-05-05 14:55 | 25.57755 | -109.10011 | 35969 ft | 421 kts | 199° |
| 2026-05-05 14:55 | 25.52040 | -109.11450 | 35970 ft | 421 kts | 199° |
| 2026-05-05 14:56 | 25.46341 | -109.12913 | 35972 ft | 420 kts | 199° |
| 2026-05-05 14:56 | 25.40656 | -109.14387 | 35972 ft | 420 kts | 199° |
| 2026-05-05 14:57 | 25.34972 | -109.15864 | 35973 ft | 420 kts | 199° |
| 2026-05-05 14:57 | 25.29287 | -109.17339 | 35970 ft | 419 kts | 199° |
| 2026-05-05 14:58 | 25.23602 | -109.18812 | 35976 ft | 420 kts | 199° |
| 2026-05-05 14:58 | 25.17912 | -109.20282 | 35979 ft | 420 kts | 198° |
| 2026-05-05 14:59 | 25.12218 | -109.21756 | 35981 ft | 421 kts | 198° |
| 2026-05-05 14:59 | 25.06516 | -109.23233 | 35978 ft | 421 kts | 198° |
| 2026-05-05 15:00 | 25.01771 | -109.24460 | 35993 ft | 421 kts | 198° |
| 2026-05-05 15:00 | 24.95092 | -109.26185 | 35990 ft | 422 kts | 198° |
| 2026-05-05 15:01 | 24.89364 | -109.27663 | 35993 ft | 423 kts | 198° |
| 2026-05-05 15:01 | 24.83628 | -109.29143 | 35996 ft | 424 kts | 198° |
| 2026-05-05 15:02 | 24.77890 | -109.30622 | 36001 ft | 424 kts | 198° |
| 2026-05-05 15:02 | 24.72147 | -109.32100 | 36000 ft | 424 kts | 198° |
| 2026-05-05 15:03 | 24.66389 | -109.33582 | 35639 ft | 430 kts | 198° |
| 2026-05-05 15:03 | 24.63477 | -109.34331 | 35099 ft | 426 kts | 198° |
| 2026-05-05 15:03 | 24.60595 | -109.35070 | 34346 ft | 426 kts | 197° |
| 2026-05-05 15:04 | 24.57714 | -109.35809 | 33598 ft | 425 kts | 197° |
| 2026-05-05 15:04 | 24.54836 | -109.36547 | 32825 ft | 425 kts | 197° |
| 2026-05-05 15:04 | 24.51958 | -109.37285 | 32026 ft | 425 kts | 197° |
| 2026-05-05 15:04 | 24.49073 | -109.38024 | 31202 ft | 426 kts | 197° |
| 2026-05-05 15:05 | 24.43304 | -109.39502 | 29469 ft | 426 kts | 196° |
| 2026-05-05 15:05 | 24.40414 | -109.40242 | 28535 ft | 427 kts | 196° |
| 2026-05-05 15:05 | 24.37518 | -109.40984 | 27554 ft | 428 kts | 196° |
| 2026-05-05 15:06 | 24.35591 | -109.41477 | 26888 ft | 429 kts | 196° |
| 2026-05-05 15:06 | 24.32684 | -109.42220 | 25881 ft | 429 kts | 196° |
| 2026-05-05 15:06 | 24.29799 | -109.42956 | 25193 ft | 424 kts | 196° |
| 2026-05-05 15:06 | 24.26896 | -109.43699 | 24444 ft | 434 kts | 196° |
| 2026-05-05 15:07 | 24.23957 | -109.44452 | 23663 ft | 431 kts | 196° |
| 2026-05-05 15:07 | 24.21056 | -109.45193 | 22908 ft | 426 kts | 196° |
| 2026-05-05 15:07 | 24.18193 | -109.45922 | 22175 ft | 419 kts | 196° |
| 2026-05-05 15:07 | 24.15376 | -109.46644 | 21449 ft | 414 kts | 196° |
| 2026-05-05 15:08 | 24.12591 | -109.47370 | 20726 ft | 409 kts | 196° |
| 2026-05-05 15:08 | 24.09833 | -109.48069 | 20006 ft | 405 kts | 196° |
| 2026-05-05 15:08 | 24.07077 | -109.48767 | 19294 ft | 408 kts | 196° |
| 2026-05-05 15:08 | 24.04306 | -109.49472 | 18565 ft | 407 kts | 196° |
| 2026-05-05 15:09 | 24.01563 | -109.50169 | 17845 ft | 402 kts | 196° |
| 2026-05-05 15:09 | 23.98854 | -109.50859 | 17125 ft | 398 kts | 196° |
| 2026-05-05 15:09 | 23.96175 | -109.51541 | 16406 ft | 394 kts | 196° |
| 2026-05-05 15:09 | 23.93508 | -109.52221 | 15693 ft | 393 kts | 196° |
| 2026-05-05 15:10 | 23.90835 | -109.52826 | 14993 ft | 393 kts | 189° |
| 2026-05-05 15:10 | 23.88106 | -109.52722 | 14750 ft | 397 kts | 177° |
| 2026-05-05 15:10 | 23.85336 | -109.52363 | 14452 ft | 404 kts | 176° |
| 2026-05-05 15:10 | 23.82540 | -109.51991 | 14155 ft | 405 kts | 176° |
| 2026-05-05 15:11 | 23.79749 | -109.51626 | 13859 ft | 403 kts | 176° |
| 2026-05-05 15:11 | 23.76972 | -109.51274 | 13568 ft | 401 kts | 177° |
| 2026-05-05 15:11 | 23.74199 | -109.50932 | 13284 ft | 400 kts | 177° |
| 2026-05-05 15:11 | 23.71438 | -109.50598 | 13002 ft | 400 kts | 177° |
| 2026-05-05 15:12 | 23.68669 | -109.50265 | 12717 ft | 399 kts | 177° |
| 2026-05-05 15:12 | 23.65911 | -109.49934 | 12437 ft | 399 kts | 177° |
| 2026-05-05 15:12 | 23.63155 | -109.49604 | 12168 ft | 399 kts | 177° |
| 2026-05-05 15:12 | 23.60415 | -109.49274 | 11864 ft | 391 kts | 177° |
| 2026-05-05 15:13 | 23.57760 | -109.48954 | 11570 ft | 378 kts | 177° |
| 2026-05-05 15:13 | 23.55188 | -109.48645 | 11316 ft | 365 kts | 177° |
| 2026-05-05 15:13 | 23.52706 | -109.48347 | 11063 ft | 352 kts | 176° |
| 2026-05-05 15:13 | 23.50326 | -109.48088 | 10806 ft | 334 kts | 181° |
| 2026-05-05 15:14 | 23.48111 | -109.48410 | 10600 ft | 313 kts | 196° |
| 2026-05-05 15:14 | 23.46042 | -109.48958 | 10382 ft | 300 kts | 196° |
| 2026-05-05 15:14 | 23.44054 | -109.49481 | 10163 ft | 288 kts | 196° |
| 2026-05-05 15:14 | 23.42126 | -109.49983 | 9971 ft | 282 kts | 196° |
| 2026-05-05 15:15 | 23.40233 | -109.50468 | 9781 ft | 277 kts | 195° |
| 2026-05-05 15:15 | 23.38356 | -109.50944 | 9582 ft | 276 kts | 195° |
| 2026-05-05 15:15 | 23.36481 | -109.51422 | 9404 ft | 277 kts | 195° |
| 2026-05-05 15:15 | 23.34595 | -109.51901 | 9199 ft | 280 kts | 195° |
| 2026-05-05 15:16 | 23.32691 | -109.52384 | 9014 ft | 282 kts | 195° |
| 2026-05-05 15:16 | 23.30773 | -109.52866 | 8803 ft | 284 kts | 195° |
| 2026-05-05 15:16 | 23.28852 | -109.53350 | 8609 ft | 282 kts | 195° |
| 2026-05-05 15:16 | 23.26948 | -109.53828 | 8399 ft | 279 kts | 195° |
| 2026-05-05 15:17 | 23.25070 | -109.54301 | 8191 ft | 275 kts | 195° |
| 2026-05-05 15:17 | 23.23211 | -109.54768 | 8004 ft | 274 kts | 195° |
| 2026-05-05 15:17 | 23.21348 | -109.55236 | 7726 ft | 277 kts | 194° |
| 2026-05-05 15:17 | 23.19465 | -109.55708 | 7448 ft | 279 kts | 194° |
| 2026-05-05 15:18 | 23.17575 | -109.56181 | 7146 ft | 278 kts | 194° |
| 2026-05-05 15:18 | 23.15698 | -109.56651 | 6890 ft | 275 kts | 194° |
| 2026-05-05 15:18 | 23.13835 | -109.57117 | 6605 ft | 274 kts | 194° |
| 2026-05-05 15:18 | 23.12013 | -109.57569 | 6347 ft | 264 kts | 194° |
| 2026-05-05 15:19 | 23.10266 | -109.58006 | 6069 ft | 251 kts | 194° |
| 2026-05-05 15:19 | 23.08599 | -109.58425 | 5809 ft | 242 kts | 194° |
| 2026-05-05 15:19 | 23.06984 | -109.58831 | 5546 ft | 234 kts | 194° |
| 2026-05-05 15:19 | 23.05409 | -109.59225 | 5307 ft | 231 kts | 194° |
| 2026-05-05 15:20 | 23.03838 | -109.59617 | 5071 ft | 232 kts | 194° |
| 2026-05-05 15:20 | 23.02267 | -109.60010 | 4844 ft | 232 kts | 194° |
| 2026-05-05 15:20 | 23.00694 | -109.60404 | 4616 ft | 232 kts | 194° |
| 2026-05-05 15:20 | 22.99173 | -109.60937 | 4359 ft | 230 kts | 213° |
| 2026-05-05 15:21 | 22.98146 | -109.62211 | 4140 ft | 225 kts | 249° |
| 2026-05-05 15:21 | 22.97771 | -109.63840 | 3936 ft | 222 kts | 264° |
| 2026-05-05 15:21 | 22.97609 | -109.65503 | 3717 ft | 221 kts | 266° |
| 2026-05-05 15:21 | 22.97470 | -109.67154 | 3481 ft | 217 kts | 268° |
| 2026-05-05 15:22 | 22.97745 | -109.68689 | 3236 ft | 205 kts | 304° |
| 2026-05-05 15:22 | 22.98828 | -109.69566 | 3056 ft | 192 kts | 339° |
| 2026-05-05 15:22 | 23.00052 | -109.70067 | 2947 ft | 187 kts | 340° |
| 2026-05-05 15:22 | 23.01307 | -109.70422 | 2881 ft | 187 kts | 347° |
| 2026-05-05 15:23 | 23.02613 | -109.70642 | 2629 ft | 190 kts | 352° |
| 2026-05-05 15:23 | 23.03925 | -109.70794 | 2382 ft | 190 kts | 353° |
| 2026-05-05 15:23 | 23.05250 | -109.70943 | 2112 ft | 193 kts | 353° |
| 2026-05-05 15:23 | 23.06567 | -109.71092 | 1837 ft | 185 kts | 354° |
| 2026-05-05 15:24 | 23.07809 | -109.71234 | 1594 ft | 173 kts | 354° |
| 2026-05-05 15:24 | 23.08949 | -109.71364 | 1373 ft | 158 kts | 354° |
| 2026-05-05 15:24 | 23.10021 | -109.71486 | 1160 ft | 151 kts | 354° |
| 2026-05-05 15:24 | 23.11051 | -109.71605 | 959 ft | 147 kts | 354° |
| 2026-05-05 15:25 | 23.12061 | -109.71719 | 768 ft | 146 kts | 354° |
| 2026-05-05 15:25 | 23.13074 | -109.71836 | 561 ft | 147 kts | 354° |
| 2026-05-05 15:25 | 23.14072 | -109.71949 | 356 ft | 141 kts | 354° |
| 2026-05-05 15:25 | 23.14950 | -109.72047 | 352 ft | 112 kts | 354° |
| 2026-05-05 15:26 | 23.15406 | -109.72070 | 359 ft | 37 kts | 13° |
| 2026-05-05 15:26 | 23.15571 | -109.72000 | 366 ft | 21 kts | 24° |
| 2026-05-05 15:26 | 23.15678 | -109.71949 | 364 ft | 16 kts | 19° |
| 2026-05-05 15:26 | 23.15788 | -109.71938 | 365 ft | 16 kts | 355° |
| 2026-05-05 15:27 | 23.15857 | -109.71918 | 368 ft | 10 kts | 69° |
| 2026-05-05 15:27 | 23.15859 | -109.71878 | 364 ft | 5 kts | 91° |
| 2026-05-05 15:27 | 23.15861 | -109.71835 | 364 ft | 8 kts | 83° |
| 2026-05-05 15:27 | 23.15864 | -109.71799 | 364 ft | 2 kts | 84° |
| 2026-05-05 15:28 | 23.15864 | -109.71797 | 364 ft | 0 kts | 84° |